sensor_id;sensor_type;location;lat;lon;timestamp;P1;durP1;ratioP1;P2;durP2;ratioP2
30301;SDS011;17111;52.130;5.028;2023-04-03T00:00:26;14.45;;;8.60;;
30301;SDS011;17111;52.130;5.028;2023-04-03T00:02:52;14.95;;;9.00;;
30301;SDS011;17111;52.130;5.028;2023-04-03T00:05:19;14.05;;;8.48;;
30301;SDS011;17111;52.130;5.028;2023-04-03T00:07:45;13.80;;;8.35;;
30301;SDS011;17111;52.130;5.028;2023-04-03T00:10:12;15.30;;;8.13;;
30301;SDS011;17111;52.130;5.028;2023-04-03T00:12:39;15.50;;;9.05;;
30301;SDS011;17111;52.130;5.028;2023-04-03T00:15:06;13.85;;;8.15;;
30301;SDS011;17111;52.130;5.028;2023-04-03T00:17:34;13.35;;;7.95;;
30301;SDS011;17111;52.130;5.028;2023-04-03T00:20:02;11.93;;;7.50;;
30301;SDS011;17111;52.130;5.028;2023-04-03T00:22:29;12.73;;;8.13;;
30301;SDS011;17111;52.130;5.028;2023-04-03T00:24:56;13.35;;;7.80;;
30301;SDS011;17111;52.130;5.028;2023-04-03T00:27:23;14.18;;;8.13;;
30301;SDS011;17111;52.130;5.028;2023-04-03T00:29:49;12.95;;;7.90;;
30301;SDS011;17111;52.130;5.028;2023-04-03T00:32:16;12.75;;;7.43;;
30301;SDS011;17111;52.130;5.028;2023-04-03T00:34:42;12.30;;;7.50;;
30301;SDS011;17111;52.130;5.028;2023-04-03T00:37:09;11.13;;;6.68;;
30301;SDS011;17111;52.130;5.028;2023-04-03T00:39:36;10.63;;;6.65;;
30301;SDS011;17111;52.130;5.028;2023-04-03T00:42:02;11.35;;;6.55;;
30301;SDS011;17111;52.130;5.028;2023-04-03T00:47:02;10.25;;;6.50;;
30301;SDS011;17111;52.130;5.028;2023-04-03T00:49:31;9.25;;;6.10;;
30301;SDS011;17111;52.130;5.028;2023-04-03T00:51:58;11.00;;;6.70;;
30301;SDS011;17111;52.130;5.028;2023-04-03T00:54:25;9.55;;;5.78;;
30301;SDS011;17111;52.130;5.028;2023-04-03T00:56:52;10.55;;;5.95;;
30301;SDS011;17111;52.130;5.028;2023-04-03T00:59:22;8.40;;;5.55;;
30301;SDS011;17111;52.130;5.028;2023-04-03T01:01:53;10.00;;;6.15;;
30301;SDS011;17111;52.130;5.028;2023-04-03T01:04:28;9.13;;;6.10;;
30301;SDS011;17111;52.130;5.028;2023-04-03T01:06:55;9.00;;;5.82;;
30301;SDS011;17111;52.130;5.028;2023-04-03T01:09:23;8.68;;;5.72;;
30301;SDS011;17111;52.130;5.028;2023-04-03T01:11:50;9.82;;;5.63;;
30301;SDS011;17111;52.130;5.028;2023-04-03T01:14:17;8.85;;;5.57;;
30301;SDS011;17111;52.130;5.028;2023-04-03T01:16:51;9.60;;;5.60;;
30301;SDS011;17111;52.130;5.028;2023-04-03T01:19:20;8.25;;;5.10;;
30301;SDS011;17111;52.130;5.028;2023-04-03T01:24:29;7.95;;;5.00;;
30301;SDS011;17111;52.130;5.028;2023-04-03T01:27:05;9.13;;;5.88;;
30301;SDS011;17111;52.130;5.028;2023-04-03T01:29:33;7.35;;;4.72;;
30301;SDS011;17111;52.130;5.028;2023-04-03T01:32:01;8.52;;;4.85;;
30301;SDS011;17111;52.130;5.028;2023-04-03T01:34:28;8.75;;;4.97;;
30301;SDS011;17111;52.130;5.028;2023-04-03T01:36:55;7.20;;;4.53;;
30301;SDS011;17111;52.130;5.028;2023-04-03T01:39:22;8.60;;;4.88;;
30301;SDS011;17111;52.130;5.028;2023-04-03T01:41:49;6.43;;;4.30;;
30301;SDS011;17111;52.130;5.028;2023-04-03T01:44:16;6.88;;;4.30;;
30301;SDS011;17111;52.130;5.028;2023-04-03T01:46:43;7.50;;;4.60;;
30301;SDS011;17111;52.130;5.028;2023-04-03T01:49:09;6.78;;;4.32;;
30301;SDS011;17111;52.130;5.028;2023-04-03T01:51:36;7.05;;;4.38;;
30301;SDS011;17111;52.130;5.028;2023-04-03T01:54:03;6.97;;;4.22;;
30301;SDS011;17111;52.130;5.028;2023-04-03T01:56:30;6.13;;;3.97;;
30301;SDS011;17111;52.130;5.028;2023-04-03T01:58:56;6.18;;;4.05;;
30301;SDS011;17111;52.130;5.028;2023-04-03T02:01:23;6.65;;;4.13;;
30301;SDS011;17111;52.130;5.028;2023-04-03T02:03:49;5.53;;;3.50;;
30301;SDS011;17111;52.130;5.028;2023-04-03T02:06:16;6.57;;;3.80;;
30301;SDS011;17111;52.130;5.028;2023-04-03T02:08:43;6.32;;;3.85;;
30301;SDS011;17111;52.130;5.028;2023-04-03T02:11:09;6.43;;;3.90;;
30301;SDS011;17111;52.130;5.028;2023-04-03T02:13:36;6.00;;;3.92;;
30301;SDS011;17111;52.130;5.028;2023-04-03T02:16:06;6.00;;;3.42;;
30301;SDS011;17111;52.130;5.028;2023-04-03T02:18:37;6.72;;;4.03;;
30301;SDS011;17111;52.130;5.028;2023-04-03T02:21:03;6.60;;;3.67;;
30301;SDS011;17111;52.130;5.028;2023-04-03T02:23:30;5.68;;;3.25;;
30301;SDS011;17111;52.130;5.028;2023-04-03T02:26:04;4.60;;;3.40;;
30301;SDS011;17111;52.130;5.028;2023-04-03T02:28:38;5.88;;;3.55;;
30301;SDS011;17111;52.130;5.028;2023-04-03T02:31:05;5.05;;;3.55;;
30301;SDS011;17111;52.130;5.028;2023-04-03T02:33:33;6.25;;;3.50;;
30301;SDS011;17111;52.130;5.028;2023-04-03T02:36:03;6.00;;;3.28;;
30301;SDS011;17111;52.130;5.028;2023-04-03T02:38:32;5.82;;;3.50;;
30301;SDS011;17111;52.130;5.028;2023-04-03T02:40:59;5.45;;;2.85;;
30301;SDS011;17111;52.130;5.028;2023-04-03T02:43:27;4.75;;;3.17;;
30301;SDS011;17111;52.130;5.028;2023-04-03T02:45:54;6.18;;;3.20;;
30301;SDS011;17111;52.130;5.028;2023-04-03T02:48:21;4.50;;;3.08;;
30301;SDS011;17111;52.130;5.028;2023-04-03T02:50:48;6.35;;;3.50;;
30301;SDS011;17111;52.130;5.028;2023-04-03T02:53:15;6.18;;;3.30;;
30301;SDS011;17111;52.130;5.028;2023-04-03T02:55:41;3.53;;;2.60;;
30301;SDS011;17111;52.130;5.028;2023-04-03T02:58:08;4.60;;;2.70;;
30301;SDS011;17111;52.130;5.028;2023-04-03T03:00:35;4.55;;;2.70;;
30301;SDS011;17111;52.130;5.028;2023-04-03T03:03:02;4.40;;;2.75;;
30301;SDS011;17111;52.130;5.028;2023-04-03T03:05:29;4.65;;;3.05;;
30301;SDS011;17111;52.130;5.028;2023-04-03T03:07:55;6.40;;;3.35;;
30301;SDS011;17111;52.130;5.028;2023-04-03T03:10:22;5.45;;;2.83;;
30301;SDS011;17111;52.130;5.028;2023-04-03T03:12:49;5.25;;;2.70;;
30301;SDS011;17111;52.130;5.028;2023-04-03T03:15:16;4.47;;;2.53;;
30301;SDS011;17111;52.130;5.028;2023-04-03T03:17:43;4.65;;;2.63;;
30301;SDS011;17111;52.130;5.028;2023-04-03T03:20:10;4.57;;;2.70;;
30301;SDS011;17111;52.130;5.028;2023-04-03T03:22:37;3.60;;;2.35;;
30301;SDS011;17111;52.130;5.028;2023-04-03T03:25:04;5.25;;;2.88;;
30301;SDS011;17111;52.130;5.028;2023-04-03T03:27:31;3.67;;;2.15;;
30301;SDS011;17111;52.130;5.028;2023-04-03T03:29:57;4.55;;;2.80;;
30301;SDS011;17111;52.130;5.028;2023-04-03T03:32:24;3.72;;;2.40;;
30301;SDS011;17111;52.130;5.028;2023-04-03T03:34:50;4.03;;;2.38;;
30301;SDS011;17111;52.130;5.028;2023-04-03T03:37:17;4.28;;;2.47;;
30301;SDS011;17111;52.130;5.028;2023-04-03T03:39:44;3.80;;;2.28;;
30301;SDS011;17111;52.130;5.028;2023-04-03T03:42:10;4.25;;;2.60;;
30301;SDS011;17111;52.130;5.028;2023-04-03T03:44:37;4.10;;;2.45;;
30301;SDS011;17111;52.130;5.028;2023-04-03T03:47:04;3.35;;;2.10;;
30301;SDS011;17111;52.130;5.028;2023-04-03T03:49:32;2.65;;;1.80;;
30301;SDS011;17111;52.130;5.028;2023-04-03T03:51:58;4.03;;;2.15;;
30301;SDS011;17111;52.130;5.028;2023-04-03T03:54:25;4.43;;;2.08;;
30301;SDS011;17111;52.130;5.028;2023-04-03T03:56:51;3.40;;;1.80;;
30301;SDS011;17111;52.130;5.028;2023-04-03T03:59:18;3.22;;;2.20;;
30301;SDS011;17111;52.130;5.028;2023-04-03T04:01:44;4.10;;;2.10;;
30301;SDS011;17111;52.130;5.028;2023-04-03T04:04:11;4.05;;;2.42;;
30301;SDS011;17111;52.130;5.028;2023-04-03T04:06:38;2.80;;;2.08;;
30301;SDS011;17111;52.130;5.028;2023-04-03T04:09:04;2.95;;;2.00;;
30301;SDS011;17111;52.130;5.028;2023-04-03T04:11:31;4.22;;;2.40;;
30301;SDS011;17111;52.130;5.028;2023-04-03T04:13:59;2.85;;;1.83;;
30301;SDS011;17111;52.130;5.028;2023-04-03T04:16:25;3.63;;;1.98;;
30301;SDS011;17111;52.130;5.028;2023-04-03T04:18:52;2.83;;;1.77;;
30301;SDS011;17111;52.130;5.028;2023-04-03T04:21:19;3.10;;;2.15;;
30301;SDS011;17111;52.130;5.028;2023-04-03T04:23:45;3.92;;;1.90;;
30301;SDS011;17111;52.130;5.028;2023-04-03T04:26:12;2.88;;;1.98;;
30301;SDS011;17111;52.130;5.028;2023-04-03T04:28:38;3.63;;;1.98;;
30301;SDS011;17111;52.130;5.028;2023-04-03T04:31:05;3.10;;;1.77;;
30301;SDS011;17111;52.130;5.028;2023-04-03T04:33:31;5.68;;;1.90;;
30301;SDS011;17111;52.130;5.028;2023-04-03T04:35:58;3.40;;;2.03;;
30301;SDS011;17111;52.130;5.028;2023-04-03T04:38:24;4.50;;;1.60;;
30301;SDS011;17111;52.130;5.028;2023-04-03T04:40:51;2.90;;;1.80;;
30301;SDS011;17111;52.130;5.028;2023-04-03T04:43:17;2.75;;;1.98;;
30301;SDS011;17111;52.130;5.028;2023-04-03T04:45:44;3.50;;;2.05;;
30301;SDS011;17111;52.130;5.028;2023-04-03T04:48:11;4.50;;;2.20;;
30301;SDS011;17111;52.130;5.028;2023-04-03T04:50:37;3.05;;;2.00;;
30301;SDS011;17111;52.130;5.028;2023-04-03T04:53:04;3.28;;;1.92;;
30301;SDS011;17111;52.130;5.028;2023-04-03T04:55:31;3.88;;;2.10;;
30301;SDS011;17111;52.130;5.028;2023-04-03T04:57:57;4.28;;;2.10;;
30301;SDS011;17111;52.130;5.028;2023-04-03T05:00:24;5.47;;;2.25;;
30301;SDS011;17111;52.130;5.028;2023-04-03T05:02:51;4.70;;;2.33;;
30301;SDS011;17111;52.130;5.028;2023-04-03T05:05:17;4.03;;;2.03;;
30301;SDS011;17111;52.130;5.028;2023-04-03T05:07:44;3.00;;;1.85;;
30301;SDS011;17111;52.130;5.028;2023-04-03T05:10:11;2.95;;;2.15;;
30301;SDS011;17111;52.130;5.028;2023-04-03T05:12:37;3.53;;;2.42;;
30301;SDS011;17111;52.130;5.028;2023-04-03T05:15:04;3.47;;;2.13;;
30301;SDS011;17111;52.130;5.028;2023-04-03T05:17:31;4.18;;;2.03;;
30301;SDS011;17111;52.130;5.028;2023-04-03T05:19:58;4.40;;;2.30;;
30301;SDS011;17111;52.130;5.028;2023-04-03T05:22:24;4.40;;;2.05;;
30301;SDS011;17111;52.130;5.028;2023-04-03T05:24:51;3.90;;;2.47;;
30301;SDS011;17111;52.130;5.028;2023-04-03T05:27:17;4.50;;;2.60;;
30301;SDS011;17111;52.130;5.028;2023-04-03T05:29:44;3.47;;;2.35;;
30301;SDS011;17111;52.130;5.028;2023-04-03T05:32:11;3.45;;;2.00;;
30301;SDS011;17111;52.130;5.028;2023-04-03T05:34:37;5.32;;;3.03;;
30301;SDS011;17111;52.130;5.028;2023-04-03T05:37:04;4.53;;;2.35;;
30301;SDS011;17111;52.130;5.028;2023-04-03T05:39:31;3.90;;;2.42;;
30301;SDS011;17111;52.130;5.028;2023-04-03T05:41:59;5.75;;;2.72;;
30301;SDS011;17111;52.130;5.028;2023-04-03T05:44:25;5.53;;;2.90;;
30301;SDS011;17111;52.130;5.028;2023-04-03T05:46:52;4.45;;;2.20;;
30301;SDS011;17111;52.130;5.028;2023-04-03T05:49:19;5.05;;;2.88;;
30301;SDS011;17111;52.130;5.028;2023-04-03T05:51:45;4.90;;;2.38;;
30301;SDS011;17111;52.130;5.028;2023-04-03T05:54:13;6.22;;;2.47;;
30301;SDS011;17111;52.130;5.028;2023-04-03T05:56:44;4.32;;;2.42;;
30301;SDS011;17111;52.130;5.028;2023-04-03T05:59:11;4.00;;;2.38;;
30301;SDS011;17111;52.130;5.028;2023-04-03T06:01:37;4.25;;;2.42;;
30301;SDS011;17111;52.130;5.028;2023-04-03T06:04:04;4.00;;;2.30;;
30301;SDS011;17111;52.130;5.028;2023-04-03T06:06:44;4.20;;;2.47;;
30301;SDS011;17111;52.130;5.028;2023-04-03T06:09:11;6.40;;;2.70;;
30301;SDS011;17111;52.130;5.028;2023-04-03T06:11:38;4.55;;;2.67;;
30301;SDS011;17111;52.130;5.028;2023-04-03T06:14:05;4.20;;;2.80;;
30301;SDS011;17111;52.130;5.028;2023-04-03T06:16:31;4.05;;;2.20;;
30301;SDS011;17111;52.130;5.028;2023-04-03T06:18:58;4.28;;;2.42;;
30301;SDS011;17111;52.130;5.028;2023-04-03T06:21:25;5.03;;;2.58;;
30301;SDS011;17111;52.130;5.028;2023-04-03T06:23:52;4.38;;;2.40;;
30301;SDS011;17111;52.130;5.028;2023-04-03T06:26:18;4.82;;;2.53;;
30301;SDS011;17111;52.130;5.028;2023-04-03T06:28:45;8.77;;;2.45;;
30301;SDS011;17111;52.130;5.028;2023-04-03T06:31:12;6.25;;;2.85;;
30301;SDS011;17111;52.130;5.028;2023-04-03T06:33:38;4.38;;;2.35;;
30301;SDS011;17111;52.130;5.028;2023-04-03T06:36:05;4.95;;;2.08;;
30301;SDS011;17111;52.130;5.028;2023-04-03T06:38:32;5.90;;;2.70;;
30301;SDS011;17111;52.130;5.028;2023-04-03T06:41:00;4.75;;;2.30;;
30301;SDS011;17111;52.130;5.028;2023-04-03T06:43:26;3.80;;;2.28;;
30301;SDS011;17111;52.130;5.028;2023-04-03T06:45:53;4.95;;;2.42;;
30301;SDS011;17111;52.130;5.028;2023-04-03T06:48:19;4.50;;;2.08;;
30301;SDS011;17111;52.130;5.028;2023-04-03T06:50:47;4.57;;;2.08;;
30301;SDS011;17111;52.130;5.028;2023-04-03T06:53:13;3.85;;;2.20;;
30301;SDS011;17111;52.130;5.028;2023-04-03T06:55:40;4.28;;;2.30;;
30301;SDS011;17111;52.130;5.028;2023-04-03T06:58:07;4.88;;;2.47;;
30301;SDS011;17111;52.130;5.028;2023-04-03T07:00:33;3.30;;;1.90;;
30301;SDS011;17111;52.130;5.028;2023-04-03T07:03:00;3.83;;;2.08;;
30301;SDS011;17111;52.130;5.028;2023-04-03T07:05:27;4.68;;;1.95;;
30301;SDS011;17111;52.130;5.028;2023-04-03T07:07:54;3.63;;;1.98;;
30301;SDS011;17111;52.130;5.028;2023-04-03T07:10:20;4.07;;;1.88;;
30301;SDS011;17111;52.130;5.028;2023-04-03T07:12:47;3.72;;;2.08;;
30301;SDS011;17111;52.130;5.028;2023-04-03T07:15:14;5.00;;;2.22;;
30301;SDS011;17111;52.130;5.028;2023-04-03T07:17:40;4.72;;;2.03;;
30301;SDS011;17111;52.130;5.028;2023-04-03T07:20:07;4.20;;;1.95;;
30301;SDS011;17111;52.130;5.028;2023-04-03T07:22:34;3.53;;;1.98;;
30301;SDS011;17111;52.130;5.028;2023-04-03T07:25:01;4.15;;;2.45;;
30301;SDS011;17111;52.130;5.028;2023-04-03T07:27:28;2.95;;;1.70;;
30301;SDS011;17111;52.130;5.028;2023-04-03T07:29:55;5.60;;;1.92;;
30301;SDS011;17111;52.130;5.028;2023-04-03T07:32:22;2.33;;;1.60;;
30301;SDS011;17111;52.130;5.028;2023-04-03T07:34:48;4.90;;;2.05;;
30301;SDS011;17111;52.130;5.028;2023-04-03T07:37:16;3.50;;;1.75;;
30301;SDS011;17111;52.130;5.028;2023-04-03T07:39:44;3.08;;;1.80;;
30301;SDS011;17111;52.130;5.028;2023-04-03T07:42:11;4.63;;;1.70;;
30301;SDS011;17111;52.130;5.028;2023-04-03T07:44:38;4.15;;;1.98;;
30301;SDS011;17111;52.130;5.028;2023-04-03T07:47:05;3.63;;;1.90;;
30301;SDS011;17111;52.130;5.028;2023-04-03T07:49:31;3.38;;;1.95;;
30301;SDS011;17111;52.130;5.028;2023-04-03T07:51:59;4.22;;;1.65;;
30301;SDS011;17111;52.130;5.028;2023-04-03T07:54:25;4.82;;;1.60;;
30301;SDS011;17111;52.130;5.028;2023-04-03T07:56:52;5.25;;;2.10;;
30301;SDS011;17111;52.130;5.028;2023-04-03T07:59:19;2.97;;;1.65;;
30301;SDS011;17111;52.130;5.028;2023-04-03T08:01:45;3.20;;;1.92;;
30301;SDS011;17111;52.130;5.028;2023-04-03T08:04:12;4.13;;;1.48;;
30301;SDS011;17111;52.130;5.028;2023-04-03T08:06:39;4.28;;;1.70;;
30301;SDS011;17111;52.130;5.028;2023-04-03T08:09:12;3.80;;;1.63;;
30301;SDS011;17111;52.130;5.028;2023-04-03T08:11:42;2.22;;;1.38;;
30301;SDS011;17111;52.130;5.028;2023-04-03T08:14:08;3.00;;;1.40;;
30301;SDS011;17111;52.130;5.028;2023-04-03T08:16:42;3.58;;;1.58;;
30301;SDS011;17111;52.130;5.028;2023-04-03T08:19:09;3.58;;;1.33;;
30301;SDS011;17111;52.130;5.028;2023-04-03T08:21:51;4.22;;;1.88;;
30301;SDS011;17111;52.130;5.028;2023-04-03T08:24:17;2.72;;;1.17;;
30301;SDS011;17111;52.130;5.028;2023-04-03T08:26:44;2.70;;;1.48;;
30301;SDS011;17111;52.130;5.028;2023-04-03T08:29:10;3.50;;;1.30;;
30301;SDS011;17111;52.130;5.028;2023-04-03T08:31:37;4.57;;;1.60;;
30301;SDS011;17111;52.130;5.028;2023-04-03T08:34:04;4.47;;;1.55;;
30301;SDS011;17111;52.130;5.028;2023-04-03T08:36:31;2.60;;;1.40;;
30301;SDS011;17111;52.130;5.028;2023-04-03T08:38:57;2.25;;;1.50;;
30301;SDS011;17111;52.130;5.028;2023-04-03T08:43:58;2.92;;;1.38;;
30301;SDS011;17111;52.130;5.028;2023-04-03T08:49:32;2.33;;;1.10;;
30301;SDS011;17111;52.130;5.028;2023-04-03T08:52:04;2.65;;;1.30;;
30301;SDS011;17111;52.130;5.028;2023-04-03T08:54:40;3.00;;;1.73;;
30301;SDS011;17111;52.130;5.028;2023-04-03T08:57:16;1.77;;;0.98;;
30301;SDS011;17111;52.130;5.028;2023-04-03T08:59:54;5.03;;;1.20;;
30301;SDS011;17111;52.130;5.028;2023-04-03T09:02:24;2.80;;;1.23;;
30301;SDS011;17111;52.130;5.028;2023-04-03T09:05:17;1.73;;;1.20;;
30301;SDS011;17111;52.130;5.028;2023-04-03T09:11:16;3.67;;;1.30;;
30301;SDS011;17111;52.130;5.028;2023-04-03T09:13:43;2.38;;;1.10;;
30301;SDS011;17111;52.130;5.028;2023-04-03T09:19:10;3.17;;;1.35;;
30301;SDS011;17111;52.130;5.028;2023-04-03T09:22:20;2.78;;;0.90;;
30301;SDS011;17111;52.130;5.028;2023-04-03T09:24:52;5.00;;;1.40;;
30301;SDS011;17111;52.130;5.028;2023-04-03T09:27:30;3.10;;;1.15;;
30301;SDS011;17111;52.130;5.028;2023-04-03T09:29:57;2.17;;;0.98;;
30301;SDS011;17111;52.130;5.028;2023-04-03T09:32:28;2.78;;;0.90;;
30301;SDS011;17111;52.130;5.028;2023-04-03T09:35:43;2.53;;;1.10;;
30301;SDS011;17111;52.130;5.028;2023-04-03T09:40:44;1.80;;;1.00;;
30301;SDS011;17111;52.130;5.028;2023-04-03T09:43:19;1.67;;;0.90;;
30301;SDS011;17111;52.130;5.028;2023-04-03T09:45:49;4.18;;;1.10;;
30301;SDS011;17111;52.130;5.028;2023-04-03T09:48:18;1.95;;;0.90;;
30301;SDS011;17111;52.130;5.028;2023-04-03T09:55:57;1.92;;;1.10;;
30301;SDS011;17111;52.130;5.028;2023-04-03T09:58:29;2.13;;;1.25;;
30301;SDS011;17111;52.130;5.028;2023-04-03T10:01:37;2.55;;;1.00;;
30301;SDS011;17111;52.130;5.028;2023-04-03T10:04:14;1.50;;;0.90;;
30301;SDS011;17111;52.130;5.028;2023-04-03T10:06:44;2.75;;;1.00;;
30301;SDS011;17111;52.130;5.028;2023-04-03T10:09:17;2.40;;;0.80;;
30301;SDS011;17111;52.130;5.028;2023-04-03T10:14:28;4.35;;;1.00;;
30301;SDS011;17111;52.130;5.028;2023-04-03T10:19:54;3.05;;;1.00;;
30301;SDS011;17111;52.130;5.028;2023-04-03T10:22:46;1.50;;;0.70;;
30301;SDS011;17111;52.130;5.028;2023-04-03T10:25:40;1.55;;;0.82;;
30301;SDS011;17111;52.130;5.028;2023-04-03T10:39:23;2.92;;;0.90;;
30301;SDS011;17111;52.130;5.028;2023-04-03T10:52:35;2.58;;;0.80;;
30301;SDS011;17111;52.130;5.028;2023-04-03T10:58:00;1.95;;;0.90;;
30301;SDS011;17111;52.130;5.028;2023-04-03T11:00:35;2.72;;;0.85;;
30301;SDS011;17111;52.130;5.028;2023-04-03T11:03:16;2.22;;;1.08;;
30301;SDS011;17111;52.130;5.028;2023-04-03T11:06:04;1.10;;;0.77;;
30301;SDS011;17111;52.130;5.028;2023-04-03T11:08:55;1.25;;;0.70;;
30301;SDS011;17111;52.130;5.028;2023-04-03T11:11:30;0.90;;;0.60;;
30301;SDS011;17111;52.130;5.028;2023-04-03T11:14:02;2.03;;;0.88;;
30301;SDS011;17111;52.130;5.028;2023-04-03T11:16:36;4.00;;;0.90;;
30301;SDS011;17111;52.130;5.028;2023-04-03T11:21:57;1.48;;;0.90;;
30301;SDS011;17111;52.130;5.028;2023-04-03T11:24:34;3.60;;;0.68;;
30301;SDS011;17111;52.130;5.028;2023-04-03T11:27:09;4.20;;;1.40;;
30301;SDS011;17111;52.130;5.028;2023-04-03T11:29:42;2.95;;;1.08;;
30301;SDS011;17111;52.130;5.028;2023-04-03T11:32:18;1.40;;;0.77;;
30301;SDS011;17111;52.130;5.028;2023-04-03T11:34:51;2.28;;;1.20;;
30301;SDS011;17111;52.130;5.028;2023-04-03T11:40:01;2.58;;;1.52;;
30301;SDS011;17111;52.130;5.028;2023-04-03T11:42:36;2.42;;;1.55;;
30301;SDS011;17111;52.130;5.028;2023-04-03T11:45:15;3.25;;;1.77;;
30301;SDS011;17111;52.130;5.028;2023-04-03T11:48:48;2.92;;;1.70;;
30301;SDS011;17111;52.130;5.028;2023-04-03T11:50:50;2.13;;;1.55;;
30301;SDS011;17111;52.130;5.028;2023-04-03T11:56:26;2.83;;;1.50;;
30301;SDS011;17111;52.130;5.028;2023-04-03T12:02:13;2.75;;;1.70;;
30301;SDS011;17111;52.130;5.028;2023-04-03T12:08:43;2.58;;;1.60;;
30301;SDS011;17111;52.130;5.028;2023-04-03T12:10:50;4.20;;;1.70;;
30301;SDS011;17111;52.130;5.028;2023-04-03T12:13:43;2.30;;;1.50;;
30301;SDS011;17111;52.130;5.028;2023-04-03T12:16:42;3.83;;;1.35;;
30301;SDS011;17111;52.130;5.028;2023-04-03T12:34:46;3.13;;;1.27;;
30301;SDS011;17111;52.130;5.028;2023-04-03T12:39:55;2.10;;;0.93;;
30301;SDS011;17111;52.130;5.028;2023-04-03T12:47:31;1.52;;;0.80;;
30301;SDS011;17111;52.130;5.028;2023-04-03T12:50:03;2.63;;;1.25;;
30301;SDS011;17111;52.130;5.028;2023-04-03T12:52:44;3.10;;;0.80;;
30301;SDS011;17111;52.130;5.028;2023-04-03T12:55:15;1.30;;;0.70;;
30301;SDS011;17111;52.130;5.028;2023-04-03T12:57:43;3.83;;;1.15;;
30301;SDS011;17111;52.130;5.028;2023-04-03T13:02:59;1.65;;;0.88;;
30301;SDS011;17111;52.130;5.028;2023-04-03T13:05:28;1.83;;;1.20;;
30301;SDS011;17111;52.130;5.028;2023-04-03T13:07:58;1.27;;;0.85;;
30301;SDS011;17111;52.130;5.028;2023-04-03T13:10:28;1.52;;;0.95;;
30301;SDS011;17111;52.130;5.028;2023-04-03T13:12:56;1.65;;;0.65;;
30301;SDS011;17111;52.130;5.028;2023-04-03T13:15:43;1.33;;;0.65;;
30301;SDS011;17111;52.130;5.028;2023-04-03T13:18:26;1.33;;;0.80;;
30301;SDS011;17111;52.130;5.028;2023-04-03T13:20:57;1.75;;;1.13;;
30301;SDS011;17111;52.130;5.028;2023-04-03T13:23:38;1.30;;;0.70;;
30301;SDS011;17111;52.130;5.028;2023-04-03T13:26:09;1.90;;;0.75;;
30301;SDS011;17111;52.130;5.028;2023-04-03T13:28:37;0.85;;;0.65;;
30301;SDS011;17111;52.130;5.028;2023-04-03T13:31:08;2.97;;;1.02;;
30301;SDS011;17111;52.130;5.028;2023-04-03T13:34:02;3.58;;;0.68;;
30301;SDS011;17111;52.130;5.028;2023-04-03T13:36:39;2.35;;;1.00;;
30301;SDS011;17111;52.130;5.028;2023-04-03T13:41:38;2.15;;;0.80;;
30301;SDS011;17111;52.130;5.028;2023-04-03T13:46:49;1.30;;;0.68;;
30301;SDS011;17111;52.130;5.028;2023-04-03T13:49:22;1.55;;;0.70;;
30301;SDS011;17111;52.130;5.028;2023-04-03T13:51:56;1.83;;;0.80;;
30301;SDS011;17111;52.130;5.028;2023-04-03T13:54:37;0.93;;;0.55;;
30301;SDS011;17111;52.130;5.028;2023-04-03T13:57:15;0.95;;;0.63;;
30301;SDS011;17111;52.130;5.028;2023-04-03T13:59:42;0.90;;;0.57;;
30301;SDS011;17111;52.130;5.028;2023-04-03T14:04:56;1.45;;;0.60;;
30301;SDS011;17111;52.130;5.028;2023-04-03T14:07:28;1.58;;;0.65;;
30301;SDS011;17111;52.130;5.028;2023-04-03T14:09:57;1.95;;;0.70;;
30301;SDS011;17111;52.130;5.028;2023-04-03T14:12:31;1.98;;;0.70;;
30301;SDS011;17111;52.130;5.028;2023-04-03T14:15:03;1.55;;;0.80;;
30301;SDS011;17111;52.130;5.028;2023-04-03T14:17:37;1.42;;;0.80;;
30301;SDS011;17111;52.130;5.028;2023-04-03T14:20:03;1.95;;;0.80;;
30301;SDS011;17111;52.130;5.028;2023-04-03T14:22:31;1.25;;;0.68;;
30301;SDS011;17111;52.130;5.028;2023-04-03T14:25:01;2.33;;;0.77;;
30301;SDS011;17111;52.130;5.028;2023-04-03T14:27:29;0.57;;;0.50;;
30301;SDS011;17111;52.130;5.028;2023-04-03T14:30:01;4.43;;;0.55;;
30301;SDS011;17111;52.130;5.028;2023-04-03T14:32:29;0.85;;;0.52;;
30301;SDS011;17111;52.130;5.028;2023-04-03T14:34:56;1.23;;;0.70;;
30301;SDS011;17111;52.130;5.028;2023-04-03T14:37:25;2.85;;;0.68;;
30301;SDS011;17111;52.130;5.028;2023-04-03T14:39:56;1.02;;;0.55;;
30301;SDS011;17111;52.130;5.028;2023-04-03T14:42:25;1.05;;;0.55;;
30301;SDS011;17111;52.130;5.028;2023-04-03T14:44:56;1.33;;;0.70;;
30301;SDS011;17111;52.130;5.028;2023-04-03T14:47:24;1.48;;;0.70;;
30301;SDS011;17111;52.130;5.028;2023-04-03T14:49:58;1.98;;;0.63;;
30301;SDS011;17111;52.130;5.028;2023-04-03T14:52:30;1.23;;;0.60;;
30301;SDS011;17111;52.130;5.028;2023-04-03T14:54:59;1.02;;;0.65;;
30301;SDS011;17111;52.130;5.028;2023-04-03T14:57:27;2.92;;;0.82;;
30301;SDS011;17111;52.130;5.028;2023-04-03T14:59:55;1.48;;;0.50;;
30301;SDS011;17111;52.130;5.028;2023-04-03T15:02:24;1.20;;;0.70;;
30301;SDS011;17111;52.130;5.028;2023-04-03T15:04:52;1.25;;;0.70;;
30301;SDS011;17111;52.130;5.028;2023-04-03T15:07:20;4.05;;;0.95;;
30301;SDS011;17111;52.130;5.028;2023-04-03T15:09:47;4.90;;;2.38;;
30301;SDS011;17111;52.130;5.028;2023-04-03T15:12:13;6.57;;;3.50;;
30301;SDS011;17111;52.130;5.028;2023-04-03T15:14:40;9.18;;;4.55;;
30301;SDS011;17111;52.130;5.028;2023-04-03T15:17:19;9.75;;;5.00;;
30301;SDS011;17111;52.130;5.028;2023-04-03T15:19:48;10.40;;;6.07;;
30301;SDS011;17111;52.130;5.028;2023-04-03T15:22:16;13.77;;;7.00;;
30301;SDS011;17111;52.130;5.028;2023-04-03T15:24:45;18.05;;;9.88;;
30301;SDS011;17111;52.130;5.028;2023-04-03T15:27:13;17.73;;;9.35;;
30301;SDS011;17111;52.130;5.028;2023-04-03T15:29:41;14.50;;;8.80;;
30301;SDS011;17111;52.130;5.028;2023-04-03T15:32:09;40.75;;;23.35;;
30301;SDS011;17111;52.130;5.028;2023-04-03T15:34:36;38.65;;;21.50;;
30301;SDS011;17111;52.130;5.028;2023-04-03T15:37:04;36.50;;;19.17;;
30301;SDS011;17111;52.130;5.028;2023-04-03T15:39:31;34.72;;;19.73;;
30301;SDS011;17111;52.130;5.028;2023-04-03T15:41:58;31.25;;;17.38;;
30301;SDS011;17111;52.130;5.028;2023-04-03T15:44:35;24.05;;;13.98;;
30301;SDS011;17111;52.130;5.028;2023-04-03T15:47:02;28.50;;;14.00;;
30301;SDS011;17111;52.130;5.028;2023-04-03T15:49:29;26.58;;;14.07;;
30301;SDS011;17111;52.130;5.028;2023-04-03T15:51:56;28.10;;;15.23;;
30301;SDS011;17111;52.130;5.028;2023-04-03T15:54:23;34.33;;;17.73;;
30301;SDS011;17111;52.130;5.028;2023-04-03T15:56:51;35.47;;;18.05;;
30301;SDS011;17111;52.130;5.028;2023-04-03T15:59:18;43.08;;;19.35;;
30301;SDS011;17111;52.130;5.028;2023-04-03T16:01:46;40.13;;;18.80;;
30301;SDS011;17111;52.130;5.028;2023-04-03T16:04:13;38.92;;;18.17;;
30301;SDS011;17111;52.130;5.028;2023-04-03T16:06:41;35.85;;;18.33;;
30301;SDS011;17111;52.130;5.028;2023-04-03T16:09:08;37.25;;;19.17;;
30301;SDS011;17111;52.130;5.028;2023-04-03T16:11:35;37.92;;;17.45;;
30301;SDS011;17111;52.130;5.028;2023-04-03T16:14:05;38.45;;;19.05;;
30301;SDS011;17111;52.130;5.028;2023-04-03T16:16:33;40.75;;;17.42;;
30301;SDS011;17111;52.130;5.028;2023-04-03T16:19:00;48.00;;;23.88;;
30301;SDS011;17111;52.130;5.028;2023-04-03T16:21:28;45.85;;;21.88;;
30301;SDS011;17111;52.130;5.028;2023-04-03T16:23:58;44.35;;;22.90;;
30301;SDS011;17111;52.130;5.028;2023-04-03T16:26:25;46.15;;;22.63;;
30301;SDS011;17111;52.130;5.028;2023-04-03T16:28:52;48.25;;;23.20;;
30301;SDS011;17111;52.130;5.028;2023-04-03T16:31:19;45.20;;;23.70;;
30301;SDS011;17111;52.130;5.028;2023-04-03T16:33:47;42.42;;;22.70;;
30301;SDS011;17111;52.130;5.028;2023-04-03T16:36:14;41.33;;;22.52;;
30301;SDS011;17111;52.130;5.028;2023-04-03T16:38:41;42.92;;;22.05;;
30301;SDS011;17111;52.130;5.028;2023-04-03T16:41:07;43.80;;;21.95;;
30301;SDS011;17111;52.130;5.028;2023-04-03T16:43:34;41.50;;;20.30;;